Terminal Aerodrome Forecast
Issued by NWS Melbourne, FL

Home | Current Version | Previous Version | Text Only | Print | Product List | Glossary On
Versions: 1 2 3 4 5 6 7 8 9 10 11 12 13 14 15 16 17 18
243
FTUS42 KMLB 250537
TAFMLB
TAF
KMLB 250537Z 2506/2606 VRB06KT P6SM VCTS SCT020 SCT030CB BKN250
     FM250800 VRB04KT P6SM VCSH FEW025 SCT070 BKN250
     FM251500 05007KT P6SM SCT025 SCT250
     FM251900 08009KT P6SM VCTS BKN030CB
     FM252200 11008KT P6SM SCT030 BKN250
     FM260000 08006KT P6SM FEW050 BKN250=

USA.gov is the U.S. government's official web portal to all federal, state and local government web resources and services.